Time;durP1;ratioP1;P1;durP2;ratioP2;P2;SDS_P1;SDS_P2;PMS_P1;PMS_P2;Temp;Humidity;BMP_temperature;BMP_pressure;BME280_temperature;BME280_humidity;BME280_pressure;Samples;Min_cycle;Max_cycle;Signal;HPM_P1;HPM_P2
2023/06/11 00:00:29;;;;;;;9.20;8.20;;;;;;;;;;5093105;28;20052;-85
2023/06/11 00:02:56;;;;;;;10.07;9.07;;;;;;;;;;5092966;28;20047;-86
2023/06/11 00:05:27;;;;;;;9.93;8.98;;;;;;;;;;5093209;28;20052;-86
2023/06/11 00:07:55;;;;;;;9.80;8.90;;;;;;;;;;5093360;28;20101;-86
2023/06/11 00:10:23;;;;;;;10.10;9.07;;;;;;;;;;5094524;28;20048;-84
2023/06/11 00:12:50;;;;;;;9.25;8.45;;;;;;;;;;5094226;28;20048;-85
2023/06/11 00:15:18;;;;;;;9.52;8.68;;;;;;;;;;5092707;28;20079;-85
2023/06/11 00:17:45;;;;;;;10.18;9.25;;;;;;;;;;5092967;28;20105;-85
2023/06/11 00:20:13;;;;;;;10.20;9.07;;;;;;;;;;5093890;28;20048;-85
2023/06/11 00:22:41;;;;;;;9.75;8.95;;;;;;;;;;5092620;28;20070;-86
2023/06/11 00:25:09;;;;;;;10.43;9.40;;;;;;;;;;5091775;28;20097;-85
2023/06/11 00:27:37;;;;;;;10.52;9.52;;;;;;;;;;5092450;28;20462;-86
2023/06/11 00:30:06;;;;;;;11.85;9.77;;;;;;;;;;5092934;28;20043;-86
2023/06/11 00:32:34;;;;;;;11.20;10.23;;;;;;;;;;5092348;28;20059;-84
2023/06/11 00:35:06;;;;;;;12.35;10.18;;;;;;;;;;5092740;28;20040;-85
2023/06/11 00:37:35;;;;;;;11.05;10.10;;;;;;;;;;5093844;28;20086;-86
2023/06/11 00:40:03;;;;;;;10.63;9.73;;;;;;;;;;5092254;28;20570;-86
2023/06/11 00:42:33;;;;;;;10.30;9.40;;;;;;;;;;5092372;28;20048;-85
2023/06/11 00:45:03;;;;;;;15.00;10.43;;;;;;;;;;5092701;28;20044;-86
2023/06/11 00:47:31;;;;;;;10.15;9.23;;;;;;;;;;5095048;28;20056;-86
2023/06/11 00:49:59;;;;;;;11.52;10.38;;;;;;;;;;5092467;28;20051;-86
2023/06/11 00:52:27;;;;;;;11.27;10.18;;;;;;;;;;5092131;28;20496;-86
2023/06/11 00:54:54;;;;;;;11.13;9.95;;;;;;;;;;5092186;28;20477;-86
2023/06/11 00:57:25;;;;;;;12.52;11.32;;;;;;;;;;5092256;28;20143;-85
2023/06/11 00:59:53;;;;;;;11.82;10.68;;;;;;;;;;5092622;28;20538;-86
2023/06/11 01:02:29;;;;;;;12.75;11.18;;;;;;;;;;5091920;28;20504;-86
2023/06/11 01:05:00;;;;;;;12.10;10.98;;;;;;;;;;5092213;28;20079;-86
2023/06/11 01:07:30;;;;;;;13.13;11.82;;;;;;;;;;5093033;28;20055;-86
2023/06/11 01:09:58;;;;;;;12.60;11.40;;;;;;;;;;5093343;28;20054;-84
2023/06/11 01:12:25;;;;;;;13.13;11.75;;;;;;;;;;5092105;28;20480;-86
2023/06/11 01:14:52;;;;;;;12.35;11.07;;;;;;;;;;5092426;28;20124;-86
2023/06/11 01:17:30;;;;;;;11.75;10.48;;;;;;;;;;5091906;28;20083;-86
2023/06/11 01:20:08;;;;;;;12.90;11.52;;;;;;;;;;5093301;28;20107;-86
2023/06/11 01:22:49;;;;;;;12.05;10.95;;;;;;;;;;5091868;28;20105;-86
2023/06/11 01:25:22;;;;;;;12.82;11.27;;;;;;;;;;5093235;28;20051;-86
2023/06/11 01:27:49;;;;;;;12.63;11.48;;;;;;;;;;5092037;28;20476;-86
2023/06/11 01:30:20;;;;;;;13.55;12.15;;;;;;;;;;5091690;28;20055;-86
2023/06/11 01:32:52;;;;;;;12.70;11.50;;;;;;;;;;5092809;28;20441;-86
2023/06/11 01:35:20;;;;;;;12.30;11.18;;;;;;;;;;5092211;28;20048;-86
2023/06/11 01:37:55;;;;;;;13.05;11.75;;;;;;;;;;5092018;28;20435;-85
2023/06/11 01:40:23;;;;;;;13.88;11.27;;;;;;;;;;5091609;28;20492;-86
2023/06/11 01:42:50;;;;;;;14.15;12.75;;;;;;;;;;5091839;28;20052;-85
2023/06/11 01:45:18;;;;;;;13.48;12.18;;;;;;;;;;5091971;28;20412;-86
2023/06/11 01:47:45;;;;;;;13.18;11.88;;;;;;;;;;5091987;28;20107;-85
2023/06/11 01:50:13;;;;;;;16.25;13.35;;;;;;;;;;5092923;28;20131;-85
2023/06/11 01:52:40;;;;;;;14.30;12.68;;;;;;;;;;5092620;28;20098;-85
2023/06/11 01:55:08;;;;;;;12.65;11.45;;;;;;;;;;5092714;28;20044;-86
2023/06/11 01:57:36;;;;;;;13.25;12.05;;;;;;;;;;5091634;28;20210;-86
2023/06/11 02:00:14;;;;;;;14.65;13.35;;;;;;;;;;5091836;28;20048;-86
2023/06/11 02:02:43;;;;;;;13.70;12.43;;;;;;;;;;5094913;28;20054;-86
2023/06/11 02:05:11;;;;;;;13.45;12.25;;;;;;;;;;5091695;28;20056;-85
2023/06/11 02:07:39;;;;;;;14.70;13.30;;;;;;;;;;5091192;28;20071;-85
2023/06/11 02:10:09;;;;;;;13.63;12.23;;;;;;;;;;5091303;28;20051;-85
2023/06/11 02:12:36;;;;;;;14.93;13.40;;;;;;;;;;5091250;28;20093;-85
2023/06/11 02:15:04;;;;;;;12.80;11.68;;;;;;;;;;5094615;28;20055;-85
2023/06/11 02:17:32;;;;;;;14.18;12.88;;;;;;;;;;5094836;28;20043;-85
2023/06/11 02:19:59;;;;;;;14.02;12.82;;;;;;;;;;5095104;28;20385;-85
2023/06/11 02:22:26;;;;;;;14.88;13.57;;;;;;;;;;5095452;28;20056;-85
2023/06/11 02:24:53;;;;;;;16.13;14.70;;;;;;;;;;5094921;28;20101;-85
2023/06/11 02:27:21;;;;;;;16.35;14.65;;;;;;;;;;5094933;28;20101;-85
2023/06/11 02:29:48;;;;;;;17.27;15.57;;;;;;;;;;5094789;28;20044;-85
2023/06/11 02:32:16;;;;;;;16.42;14.73;;;;;;;;;;5094322;28;20052;-85
2023/06/11 02:34:43;;;;;;;17.20;14.75;;;;;;;;;;5095909;28;20484;-85
2023/06/11 02:37:10;;;;;;;16.90;15.30;;;;;;;;;;5095688;28;20519;-85
2023/06/11 02:39:37;;;;;;;15.02;13.57;;;;;;;;;;5094884;28;20480;-85
2023/06/11 02:42:05;;;;;;;16.27;13.73;;;;;;;;;;5094341;28;20471;-85
2023/06/11 02:44:33;;;;;;;15.48;14.07;;;;;;;;;;5094689;28;20076;-85
2023/06/11 02:47:00;;;;;;;16.15;14.55;;;;;;;;;;5094388;28;20048;-85
2023/06/11 02:49:27;;;;;;;16.38;14.75;;;;;;;;;;5094103;28;20044;-86
2023/06/11 02:51:55;;;;;;;15.88;14.38;;;;;;;;;;5094303;28;20508;-85
2023/06/11 02:54:22;;;;;;;15.38;13.98;;;;;;;;;;5094409;28;20138;-85
2023/06/11 02:56:49;;;;;;;15.27;13.75;;;;;;;;;;5095414;28;20048;-85
2023/06/11 02:59:16;;;;;;;16.25;14.55;;;;;;;;;;5095219;28;20093;-85
2023/06/11 03:01:44;;;;;;;16.67;15.07;;;;;;;;;;5095130;28;20071;-85
2023/06/11 03:04:11;;;;;;;15.25;13.75;;;;;;;;;;5093956;28;20083;-85
2023/06/11 03:06:38;;;;;;;15.52;13.98;;;;;;;;;;5094116;28;20419;-85
2023/06/11 03:09:06;;;;;;;15.50;14.02;;;;;;;;;;5095157;28;20048;-85
2023/06/11 03:11:33;;;;;;;16.65;14.82;;;;;;;;;;5093949;28;20102;-85
2023/06/11 03:14:00;;;;;;;16.23;14.25;;;;;;;;;;5093587;28;20044;-85
2023/06/11 03:16:28;;;;;;;15.80;14.30;;;;;;;;;;5093671;28;20052;-85
2023/06/11 03:18:56;;;;;;;16.73;15.13;;;;;;;;;;5097583;28;20082;-85
2023/06/11 03:21:23;;;;;;;15.73;14.23;;;;;;;;;;5095396;28;20105;-85
2023/06/11 03:23:50;;;;;;;14.93;13.57;;;;;;;;;;5093611;28;20500;-86
2023/06/11 03:26:18;;;;;;;15.27;13.77;;;;;;;;;;5093548;28;20072;-84
2023/06/11 03:28:45;;;;;;;16.25;14.23;;;;;;;;;;5093572;28;20052;-85
2023/06/11 03:31:12;;;;;;;15.10;13.60;;;;;;;;;;5093183;28;20048;-85
2023/06/11 03:33:39;;;;;;;16.75;14.90;;;;;;;;;;5093498;28;20044;-85
2023/06/11 03:36:07;;;;;;;16.40;14.75;;;;;;;;;;5094825;28;20048;-85
2023/06/11 03:38:34;;;;;;;16.58;14.80;;;;;;;;;;5094530;28;20476;-85
2023/06/11 03:41:01;;;;;;;16.42;14.82;;;;;;;;;;5093056;28;20076;-85
2023/06/11 03:43:28;;;;;;;16.38;14.77;;;;;;;;;;5093098;28;20055;-85
2023/06/11 03:45:56;;;;;;;16.63;15.02;;;;;;;;;;5092987;28;20040;-86
2023/06/11 03:48:23;;;;;;;17.80;15.85;;;;;;;;;;5093114;28;20576;-85
2023/06/11 03:50:50;;;;;;;19.73;16.73;;;;;;;;;;5092874;28;20488;-85
2023/06/11 03:53:20;;;;;;;20.65;18.08;;;;;;;;;;5093322;28;20048;-85
2023/06/11 03:55:47;;;;;;;19.13;17.27;;;;;;;;;;5092843;28;20048;-85
2023/06/11 03:58:14;;;;;;;18.90;17.20;;;;;;;;;;5092909;28;20060;-85
2023/06/11 04:00:41;;;;;;;20.33;18.35;;;;;;;;;;5093031;28;20040;-85
2023/06/11 04:03:09;;;;;;;19.35;17.45;;;;;;;;;;5092623;28;20072;-85
2023/06/11 04:05:36;;;;;;;21.58;18.83;;;;;;;;;;5092905;28;20101;-85
2023/06/11 04:08:04;;;;;;;22.92;20.42;;;;;;;;;;5093943;28;20123;-85
2023/06/11 04:10:32;;;;;;;22.05;19.83;;;;;;;;;;5092521;28;20048;-85
2023/06/11 04:12:59;;;;;;;22.63;19.20;;;;;;;;;;5092540;28;20079;-85
2023/06/11 04:15:26;;;;;;;18.40;16.48;;;;;;;;;;5093920;28;20044;-85
2023/06/11 04:17:54;;;;;;;22.52;20.10;;;;;;;;;;5092651;28;20109;-85
2023/06/11 04:20:21;;;;;;;18.27;16.38;;;;;;;;;;5093789;28;20159;-86
2023/06/11 04:22:48;;;;;;;16.73;15.10;;;;;;;;;;5092052;28;20055;-85
2023/06/11 04:25:16;;;;;;;16.70;15.10;;;;;;;;;;5092443;28;20090;-85
2023/06/11 04:27:44;;;;;;;14.80;13.40;;;;;;;;;;5093482;28;20402;-85
2023/06/11 04:30:12;;;;;;;16.02;13.25;;;;;;;;;;5092280;28;20079;-85
2023/06/11 04:32:40;;;;;;;17.52;15.73;;;;;;;;;;5092391;28;20055;-86
2023/06/11 04:35:08;;;;;;;20.00;16.38;;;;;;;;;;5097914;28;20063;-86
2023/06/11 04:37:40;;;;;;;18.40;16.30;;;;;;;;;;5093514;28;20048;-86
2023/06/11 04:40:10;;;;;;;30.33;22.85;;;;;;;;;;5092380;28;20055;-85
2023/06/11 04:42:41;;;;;;;31.00;24.27;;;;;;;;;;5092281;28;20097;-85
2023/06/11 04:45:09;;;;;;;16.67;14.85;;;;;;;;;;5092493;28;20048;-86
2023/06/11 04:47:37;;;;;;;16.42;14.82;;;;;;;;;;5092424;28;20051;-85
2023/06/11 04:50:06;;;;;;;17.95;12.88;;;;;;;;;;5093182;28;20058;-85
2023/06/11 04:52:43;;;;;;;12.68;11.57;;;;;;;;;;5092383;28;20055;-86
2023/06/11 04:55:11;;;;;;;14.07;12.68;;;;;;;;;;5093647;28;20058;-86
2023/06/11 04:57:39;;;;;;;13.05;11.50;;;;;;;;;;5092393;28;20044;-86
2023/06/11 05:00:07;;;;;;;13.02;11.65;;;;;;;;;;5092326;28;20496;-84
2023/06/11 05:02:38;;;;;;;12.10;10.90;;;;;;;;;;5091862;28;20139;-84
2023/06/11 05:05:06;;;;;;;11.70;10.60;;;;;;;;;;5092364;28;20044;-84
2023/06/11 05:07:33;;;;;;;11.93;10.73;;;;;;;;;;5092436;28;20056;-84
2023/06/11 05:10:01;;;;;;;10.57;9.57;;;;;;;;;;5092068;28;20075;-84
2023/06/11 05:12:28;;;;;;;9.77;8.88;;;;;;;;;;5092366;28;20059;-84
2023/06/11 05:14:55;;;;;;;10.00;8.98;;;;;;;;;;5092133;28;20040;-84
2023/06/11 05:17:22;;;;;;;9.18;8.48;;;;;;;;;;5092188;28;20044;-84
2023/06/11 05:19:51;;;;;;;9.25;8.07;;;;;;;;;;5092262;28;20040;-84
2023/06/11 05:22:19;;;;;;;8.55;7.70;;;;;;;;;;5092941;28;20101;-84
2023/06/11 05:24:47;;;;;;;10.55;8.50;;;;;;;;;;5093531;28;20044;-84
2023/06/11 05:27:15;;;;;;;12.88;8.98;;;;;;;;;;5092190;28;20056;-84
2023/06/11 05:29:42;;;;;;;12.48;8.45;;;;;;;;;;5092047;28;20050;-84
2023/06/11 05:32:14;;;;;;;13.68;8.30;;;;;;;;;;5091913;28;20134;-86
2023/06/11 05:34:43;;;;;;;9.75;8.63;;;;;;;;;;5092249;28;20078;-84
2023/06/11 05:37:10;;;;;;;10.15;8.50;;;;;;;;;;5092439;28;20144;-85
2023/06/11 05:39:37;;;;;;;9.07;7.82;;;;;;;;;;5092080;28;20052;-85
2023/06/11 05:42:06;;;;;;;8.18;7.40;;;;;;;;;;5091624;28;20044;-84
2023/06/11 05:44:33;;;;;;;8.10;7.38;;;;;;;;;;5091856;28;20048;-84
2023/06/11 05:47:00;;;;;;;8.80;8.00;;;;;;;;;;5091946;28;20048;-84
2023/06/11 05:49:28;;;;;;;8.02;7.30;;;;;;;;;;5095130;28;20044;-85
2023/06/11 05:51:55;;;;;;;7.88;7.13;;;;;;;;;;5100698;28;20051;-85
2023/06/11 05:54:23;;;;;;;7.30;6.60;;;;;;;;;;5095882;28;20094;-85
2023/06/11 05:56:50;;;;;;;8.82;7.65;;;;;;;;;;5095670;28;20044;-84
2023/06/11 05:59:17;;;;;;;10.10;8.20;;;;;;;;;;5095898;28;20047;-85
2023/06/11 06:01:45;;;;;;;11.05;8.30;;;;;;;;;;5095688;28;20040;-84
2023/06/11 06:04:13;;;;;;;12.55;8.00;;;;;;;;;;5095777;28;20063;-85
2023/06/11 06:06:41;;;;;;;13.70;8.30;;;;;;;;;;5096035;28;20135;-85
2023/06/11 06:09:09;;;;;;;10.82;7.85;;;;;;;;;;5095330;28;20051;-85
2023/06/11 06:11:36;;;;;;;9.85;8.20;;;;;;;;;;5095532;28;20048;-84
2023/06/11 06:14:03;;;;;;;13.27;8.27;;;;;;;;;;5095703;28;20066;-84
2023/06/11 06:16:31;;;;;;;18.73;8.60;;;;;;;;;;5095443;28;20109;-84
2023/06/11 06:18:59;;;;;;;12.02;7.97;;;;;;;;;;5095606;28;20055;-85
2023/06/11 06:21:26;;;;;;;16.70;8.52;;;;;;;;;;5095419;28;20044;-85
2023/06/11 06:23:53;;;;;;;19.80;8.88;;;;;;;;;;5095344;28;20101;-85
2023/06/11 06:26:22;;;;;;;11.80;7.68;;;;;;;;;;5093958;28;20447;-84
2023/06/11 06:28:50;;;;;;;16.63;8.40;;;;;;;;;;5095455;28;20105;-86
2023/06/11 06:31:17;;;;;;;11.98;8.68;;;;;;;;;;5095121;28;20121;-86
2023/06/11 06:33:44;;;;;;;20.48;9.27;;;;;;;;;;5095610;28;20466;-85
2023/06/11 06:36:12;;;;;;;18.83;9.60;;;;;;;;;;5095111;28;20044;-85
2023/06/11 06:38:40;;;;;;;13.90;9.10;;;;;;;;;;5095200;28;20056;-85
2023/06/11 06:41:07;;;;;;;17.48;9.15;;;;;;;;;;5095165;28;20044;-85
2023/06/11 06:43:35;;;;;;;16.33;8.82;;;;;;;;;;5095164;28;20068;-85
2023/06/11 06:46:03;;;;;;;8.57;7.40;;;;;;;;;;5095365;28;20079;-85
2023/06/11 06:48:30;;;;;;;9.32;8.32;;;;;;;;;;5094893;28;20048;-84
2023/06/11 06:50:57;;;;;;;9.82;8.15;;;;;;;;;;5094774;28;20052;-86
2023/06/11 06:53:25;;;;;;;11.63;8.38;;;;;;;;;;5095098;28;20052;-88
2023/06/11 06:55:52;;;;;;;9.48;8.38;;;;;;;;;;5094924;28;20109;-87
2023/06/11 06:58:19;;;;;;;10.35;8.25;;;;;;;;;;5094926;28;20052;-86
2023/06/11 07:00:47;;;;;;;12.85;8.82;;;;;;;;;;5094721;28;20109;-87
2023/06/11 07:03:14;;;;;;;10.02;8.15;;;;;;;;;;5094690;28;20136;-86
2023/06/11 07:05:42;;;;;;;8.68;7.78;;;;;;;;;;5094073;28;20044;-86
2023/06/11 07:08:12;;;;;;;7.63;7.03;;;;;;;;;;5095367;28;20052;-85
2023/06/11 07:10:42;;;;;;;8.43;6.88;;;;;;;;;;5095076;28;20056;-87
2023/06/11 07:13:11;;;;;;;7.70;6.10;;;;;;;;;;5094676;28;20499;-85
2023/06/11 07:15:38;;;;;;;7.90;7.18;;;;;;;;;;5095750;28;20052;-86
2023/06/11 07:18:05;;;;;;;6.80;6.22;;;;;;;;;;5094366;28;20044;-86
2023/06/11 07:20:33;;;;;;;8.52;6.18;;;;;;;;;;5094160;28;20048;-84
2023/06/11 07:23:00;;;;;;;6.82;6.15;;;;;;;;;;5094233;28;20491;-88
2023/06/11 07:25:30;;;;;;;6.10;5.57;;;;;;;;;;5094797;28;20400;-86
2023/06/11 07:28:01;;;;;;;6.32;5.72;;;;;;;;;;5094550;28;20101;-86
2023/06/11 07:30:29;;;;;;;6.07;5.57;;;;;;;;;;5094064;28;20051;-86
2023/06/11 07:32:57;;;;;;;9.90;6.07;;;;;;;;;;5093933;28;20079;-88
2023/06/11 07:35:25;;;;;;;6.82;5.82;;;;;;;;;;5094213;28;20058;-91
2023/06/11 07:37:52;;;;;;;5.82;5.38;;;;;;;;;;5094379;28;20109;-85
2023/06/11 07:40:20;;;;;;;6.95;4.85;;;;;;;;;;5095061;28;20080;-85
2023/06/11 07:42:48;;;;;;;9.32;5.30;;;;;;;;;;5093907;28;20492;-87
2023/06/11 07:45:15;;;;;;;5.47;5.00;;;;;;;;;;5093839;28;20504;-87
2023/06/11 07:47:42;;;;;;;5.40;4.90;;;;;;;;;;5093741;28;20078;-88
2023/06/11 07:50:11;;;;;;;6.38;5.47;;;;;;;;;;5095081;28;20519;-87
2023/06/11 07:52:39;;;;;;;7.43;4.75;;;;;;;;;;5094060;28;20447;-88
2023/06/11 07:55:06;;;;;;;5.30;4.90;;;;;;;;;;5094190;28;20496;-89
2023/06/11 07:57:33;;;;;;;6.60;4.32;;;;;;;;;;5094009;28;20499;-88
2023/06/11 08:00:01;;;;;;;4.20;3.90;;;;;;;;;;5094738;28;20059;-87
2023/06/11 08:02:28;;;;;;;8.65;4.38;;;;;;;;;;5093715;28;20080;-85
2023/06/11 08:04:56;;;;;;;5.43;3.65;;;;;;;;;;5093965;28;20479;-88
2023/06/11 08:07:23;;;;;;;3.92;3.50;;;;;;;;;;5093942;28;20048;-86
2023/06/11 08:09:50;;;;;;;6.43;3.83;;;;;;;;;;5095192;28;20074;-89
2023/06/11 08:12:17;;;;;;;4.10;3.50;;;;;;;;;;5094990;28;20052;-86
2023/06/11 08:14:48;;;;;;;3.63;3.33;;;;;;;;;;5093804;28;20514;-91
2023/06/11 08:17:16;;;;;;;3.88;3.47;;;;;;;;;;5093607;28;20048;-89
2023/06/11 08:19:44;;;;;;;5.55;3.63;;;;;;;;;;5094239;28;20082;-91
2023/06/11 08:22:12;;;;;;;3.78;3.47;;;;;;;;;;5097336;28;20052;-87
2023/06/11 08:24:39;;;;;;;6.47;3.33;;;;;;;;;;5098171;28;20431;-91
2023/06/11 08:27:08;;;;;;;5.45;3.42;;;;;;;;;;5093779;28;20044;-90
2023/06/11 08:29:35;;;;;;;3.47;2.88;;;;;;;;;;5093759;28;20082;-86
2023/06/11 08:32:02;;;;;;;3.70;2.85;;;;;;;;;;5093164;28;20052;-86
2023/06/11 08:34:30;;;;;;;4.20;3.10;;;;;;;;;;5094614;28;20058;-89
2023/06/11 08:36:57;;;;;;;7.03;2.75;;;;;;;;;;5093738;28;20573;-89
2023/06/11 08:39:26;;;;;;;3.28;2.90;;;;;;;;;;5093263;28;20064;-92
2023/06/11 08:41:54;;;;;;;5.00;2.50;;;;;;;;;;5094139;28;20052;-87
2023/06/11 08:44:21;;;;;;;4.40;2.60;;;;;;;;;;5093173;28;20048;-88
2023/06/11 08:46:56;;;;;;;4.65;2.70;;;;;;;;;;5094853;28;20408;-87
2023/06/11 08:49:23;;;;;;;2.67;2.47;;;;;;;;;;5093498;28;20052;-88
2023/06/11 08:51:51;;;;;;;6.03;2.60;;;;;;;;;;5092888;28;20079;-88
2023/06/11 08:54:18;;;;;;;4.53;2.40;;;;;;;;;;5094088;28;20078;-87
2023/06/11 08:56:45;;;;;;;12.50;2.70;;;;;;;;;;5093784;28;20549;-88
2023/06/11 08:59:13;;;;;;;5.45;2.85;;;;;;;;;;5094583;28;20051;-93
2023/06/11 09:01:40;;;;;;;5.20;2.55;;;;;;;;;;5094315;28;20058;-87
2023/06/11 09:04:08;;;;;;;3.55;2.65;;;;;;;;;;5093675;28;20047;-86
2023/06/11 09:06:36;;;;;;;3.63;2.40;;;;;;;;;;5093055;28;20571;-86
2023/06/11 09:09:06;;;;;;;5.50;2.80;;;;;;;;;;5094043;28;20052;-89
2023/06/11 09:11:34;;;;;;;4.63;2.35;;;;;;;;;;5093197;28;20454;-86
2023/06/11 09:14:02;;;;;;;2.83;2.30;;;;;;;;;;5093122;28;20113;-87
2023/06/11 09:16:29;;;;;;;2.75;2.40;;;;;;;;;;5093213;28;20121;-86
2023/06/11 09:18:57;;;;;;;8.38;2.75;;;;;;;;;;5093931;28;20067;-90
2023/06/11 09:21:25;;;;;;;2.70;2.50;;;;;;;;;;5092823;28;20545;-92
2023/06/11 09:23:52;;;;;;;4.68;2.72;;;;;;;;;;5095176;28;20052;-87
2023/06/11 09:26:19;;;;;;;2.70;2.50;;;;;;;;;;5097798;28;20048;-85
2023/06/11 09:28:47;;;;;;;4.35;2.60;;;;;;;;;;5098767;28;20047;-90
2023/06/11 09:31:20;;;;;;;3.78;2.30;;;;;;;;;;5097611;28;20139;-92
2023/06/11 09:33:47;;;;;;;5.43;2.53;;;;;;;;;;5098663;28;20052;-93
2023/06/11 09:36:18;;;;;;;3.88;2.83;;;;;;;;;;5099472;28;20051;-92
2023/06/11 09:38:48;;;;;;;5.90;2.35;;;;;;;;;;5099243;28;20063;-87
2023/06/11 09:41:17;;;;;;;6.88;2.50;;;;;;;;;;5107530;28;20507;-92
2023/06/11 09:43:51;;;;;;;4.22;2.80;;;;;;;;;;5097273;28;20389;-89
2023/06/11 09:46:19;;;;;;;2.50;2.20;;;;;;;;;;5097074;28;20117;-87
2023/06/11 09:48:47;;;;;;;2.97;2.33;;;;;;;;;;5097906;28;20051;-90
2023/06/11 09:51:21;;;;;;;3.20;2.25;;;;;;;;;;5098530;28;20083;-85
2023/06/11 09:53:51;;;;;;;5.18;2.50;;;;;;;;;;5097721;28;20048;-90
2023/06/11 09:56:19;;;;;;;3.75;2.30;;;;;;;;;;5097330;28;20495;-90
2023/06/11 09:58:49;;;;;;;2.50;2.40;;;;;;;;;;5097319;28;20404;-93
2023/06/11 10:01:16;;;;;;;3.13;2.30;;;;;;;;;;5098759;28;20052;-91
2023/06/11 10:03:45;;;;;;;2.47;2.13;;;;;;;;;;5097167;28;20082;-86
2023/06/11 10:06:15;;;;;;;2.83;2.60;;;;;;;;;;5098688;28;20048;-88
2023/06/11 10:08:44;;;;;;;3.03;2.80;;;;;;;;;;5098584;28;20055;-91
2023/06/11 10:11:12;;;;;;;3.63;2.30;;;;;;;;;;5097461;28;20052;-86
2023/06/11 10:13:40;;;;;;;2.95;2.35;;;;;;;;;;5097719;28;20051;-89
2023/06/11 10:16:14;;;;;;;4.18;2.60;;;;;;;;;;5097366;28;20477;-88
2023/06/11 10:18:41;;;;;;;2.60;2.38;;;;;;;;;;5097555;28;20090;-93
2023/06/11 10:21:08;;;;;;;3.08;2.65;;;;;;;;;;5098021;28;20072;-87
2023/06/11 10:23:36;;;;;;;6.55;2.85;;;;;;;;;;5096427;28;20051;-89
2023/06/11 10:26:04;;;;;;;4.03;2.90;;;;;;;;;;5097774;28;20067;-91
2023/06/11 10:28:36;;;;;;;2.90;2.70;;;;;;;;;;5096990;28;20048;-88
2023/06/11 10:31:04;;;;;;;3.38;2.75;;;;;;;;;;5096508;28;20407;-88
2023/06/11 10:33:49;;;;;;;2.42;2.30;;;;;;;;;;5097076;28;20389;-89
2023/06/11 10:36:23;;;;;;;3.00;2.45;;;;;;;;;;5096669;28;20411;-89
2023/06/11 10:38:52;;;;;;;2.53;2.35;;;;;;;;;;5096822;28;20098;-87
2023/06/11 10:41:29;;;;;;;2.97;2.28;;;;;;;;;;5096113;28;20097;-91
2023/06/11 10:44:00;;;;;;;2.70;2.47;;;;;;;;;;5097028;28;20093;-88
2023/06/11 10:46:27;;;;;;;2.95;2.75;;;;;;;;;;5095335;28;20461;-88
2023/06/11 10:48:55;;;;;;;2.85;2.60;;;;;;;;;;5095781;28;20484;-88
2023/06/11 10:51:22;;;;;;;9.45;2.83;;;;;;;;;;5097104;28;20074;-87
2023/06/11 10:53:58;;;;;;;3.88;2.40;;;;;;;;;;5096303;28;20048;-92
2023/06/11 10:56:28;;;;;;;4.10;2.40;;;;;;;;;;5096310;28;20050;-88
2023/06/11 10:58:55;;;;;;;2.55;2.35;;;;;;;;;;5096123;28;20048;-87
2023/06/11 11:01:23;;;;;;;3.58;2.58;;;;;;;;;;5100828;28;20051;-90
2023/06/11 11:03:51;;;;;;;4.53;2.38;;;;;;;;;;5102284;28;20051;-88
2023/06/11 11:06:26;;;;;;;3.60;2.60;;;;;;;;;;5096226;28;20044;-92
2023/06/11 11:08:57;;;;;;;5.35;2.60;;;;;;;;;;5095841;28;20530;-90
2023/06/11 11:11:26;;;;;;;2.72;2.50;;;;;;;;;;5095167;28;20106;-88
2023/06/11 11:13:54;;;;;;;6.07;2.58;;;;;;;;;;5096110;28;20488;-89
2023/06/11 11:16:23;;;;;;;4.32;3.10;;;;;;;;;;5096259;28;20561;-91
2023/06/11 11:18:50;;;;;;;5.65;2.60;;;;;;;;;;5095424;28;20056;-88
2023/06/11 11:21:18;;;;;;;5.00;2.25;;;;;;;;;;5095282;28;20051;-88
2023/06/11 11:23:49;;;;;;;5.07;3.05;;;;;;;;;;5095428;28;20545;-86
2023/06/11 11:26:17;;;;;;;2.97;2.50;;;;;;;;;;5094999;28;20075;-88
2023/06/11 11:28:45;;;;;;;5.50;3.15;;;;;;;;;;5096179;28;20054;-88
2023/06/11 11:31:13;;;;;;;2.83;2.63;;;;;;;;;;5095057;28;20055;-88
2023/06/11 11:33:42;;;;;;;3.00;2.70;;;;;;;;;;5094885;28;20484;-88
2023/06/11 11:36:11;;;;;;;5.70;3.03;;;;;;;;;;5096475;28;20078;-88
2023/06/11 11:38:39;;;;;;;2.70;2.50;;;;;;;;;;5095062;28;20462;-91
2023/06/11 11:41:09;;;;;;;3.83;2.95;;;;;;;;;;5095294;28;20473;-88
2023/06/11 11:43:40;;;;;;;5.68;2.72;;;;;;;;;;5094670;28;20051;-89
2023/06/11 11:46:15;;;;;;;3.30;2.80;;;;;;;;;;5094024;28;20047;-89
2023/06/11 11:48:42;;;;;;;3.53;2.67;;;;;;;;;;5093638;28;20044;-87
2023/06/11 11:51:11;;;;;;;2.92;2.72;;;;;;;;;;5094356;28;20103;-89
2023/06/11 11:53:40;;;;;;;3.35;2.58;;;;;;;;;;5094367;28;20491;-88
2023/06/11 11:56:08;;;;;;;3.28;2.80;;;;;;;;;;5094474;28;20083;-86
2023/06/11 11:58:39;;;;;;;3.00;2.70;;;;;;;;;;5095277;28;20060;-90
2023/06/11 12:01:09;;;;;;;2.90;2.65;;;;;;;;;;5094895;28;20055;-93
2023/06/11 12:03:37;;;;;;;6.80;2.80;;;;;;;;;;5094974;28;20122;-92
2023/06/11 12:06:06;;;;;;;6.82;3.08;;;;;;;;;;5094701;28;20512;-91
2023/06/11 12:08:34;;;;;;;9.60;3.10;;;;;;;;;;5095098;28;20044;-89
2023/06/11 12:11:03;;;;;;;4.43;3.08;;;;;;;;;;5095239;28;20051;-93
2023/06/11 12:13:31;;;;;;;5.65;2.90;;;;;;;;;;5094564;28;20130;-87
2023/06/11 12:15:58;;;;;;;2.90;2.40;;;;;;;;;;5094375;28;20055;-88
2023/06/11 12:18:30;;;;;;;8.20;2.90;;;;;;;;;;5094665;28;20152;-86
2023/06/11 12:20:57;;;;;;;7.22;2.83;;;;;;;;;;5094673;28;20063;-89
2023/06/11 12:23:24;;;;;;;2.75;2.55;;;;;;;;;;5095487;28;20458;-93
2023/06/11 12:25:52;;;;;;;4.00;2.70;;;;;;;;;;5101071;28;20081;-88
2023/06/11 12:28:19;;;;;;;3.97;2.83;;;;;;;;;;5095775;28;20463;-88
2023/06/11 12:30:46;;;;;;;4.88;2.80;;;;;;;;;;5094791;28;20427;-91
2023/06/11 12:33:15;;;;;;;5.90;2.88;;;;;;;;;;5093951;28;20101;-88
2023/06/11 12:35:43;;;;;;;4.15;2.45;;;;;;;;;;5094530;28;20079;-89
2023/06/11 12:38:11;;;;;;;6.20;3.03;;;;;;;;;;5093997;28;20043;-89
2023/06/11 12:40:38;;;;;;;3.50;2.80;;;;;;;;;;5095184;28;20512;-87
2023/06/11 12:43:05;;;;;;;3.33;2.47;;;;;;;;;;5096296;28;20048;-89
2023/06/11 12:45:36;;;;;;;4.97;2.72;;;;;;;;;;5093194;28;20074;-89
2023/06/11 12:48:05;;;;;;;4.03;3.10;;;;;;;;;;5094347;28;20105;-87
2023/06/11 12:50:32;;;;;;;7.07;3.38;;;;;;;;;;5092972;28;20158;-88
2023/06/11 12:53:00;;;;;;;2.72;2.42;;;;;;;;;;5093466;28;20124;-90
2023/06/11 12:55:27;;;;;;;4.07;2.65;;;;;;;;;;5093179;28;20465;-87
2023/06/11 12:57:55;;;;;;;3.72;2.72;;;;;;;;;;5092700;28;20044;-86
2023/06/11 13:00:24;;;;;;;4.07;2.40;;;;;;;;;;5093266;28;20063;-86
2023/06/11 13:02:51;;;;;;;5.63;2.97;;;;;;;;;;5093458;28;20105;-90
2023/06/11 13:05:21;;;;;;;5.57;2.92;;;;;;;;;;5093173;28;20057;-89
2023/06/11 13:07:48;;;;;;;3.60;3.13;;;;;;;;;;5094047;28;20121;-90
2023/06/11 13:10:16;;;;;;;5.47;3.17;;;;;;;;;;5092833;28;20480;-87
2023/06/11 13:12:44;;;;;;;4.45;3.03;;;;;;;;;;5092784;28;20052;-86
2023/06/11 13:15:14;;;;;;;3.92;3.03;;;;;;;;;;5094179;28;20048;-86
2023/06/11 13:17:41;;;;;;;5.88;3.03;;;;;;;;;;5093534;28;20488;-91
2023/06/11 13:20:09;;;;;;;4.18;2.90;;;;;;;;;;5093979;28;20070;-88
2023/06/11 13:22:38;;;;;;;4.00;2.85;;;;;;;;;;5093877;28;20052;-88
2023/06/11 13:25:05;;;;;;;4.38;3.08;;;;;;;;;;5093104;28;20056;-85
2023/06/11 13:27:32;;;;;;;3.17;2.90;;;;;;;;;;5093262;28;20051;-87
2023/06/11 13:30:01;;;;;;;5.57;2.88;;;;;;;;;;5093098;28;20067;-88
2023/06/11 13:32:28;;;;;;;4.97;2.88;;;;;;;;;;5093192;28;20059;-90
2023/06/11 13:34:57;;;;;;;5.20;3.00;;;;;;;;;;5093322;28;20062;-89
2023/06/11 13:37:24;;;;;;;3.33;2.95;;;;;;;;;;5093487;28;20048;-86
2023/06/11 13:39:52;;;;;;;4.47;3.45;;;;;;;;;;5092821;28;20499;-87
2023/06/11 13:42:19;;;;;;;3.63;3.33;;;;;;;;;;5093439;28;20044;-85
2023/06/11 13:44:46;;;;;;;5.60;3.20;;;;;;;;;;5094696;28;20068;-90
2023/06/11 13:47:13;;;;;;;3.05;2.58;;;;;;;;;;5095873;28;20097;-87
2023/06/11 13:49:41;;;;;;;3.22;3.00;;;;;;;;;;5093033;28;20056;-85
2023/06/11 13:52:08;;;;;;;6.55;2.85;;;;;;;;;;5092543;28;20044;-90
2023/06/11 13:54:35;;;;;;;4.28;3.00;;;;;;;;;;5092648;28;20073;-86
2023/06/11 13:57:03;;;;;;;5.30;3.28;;;;;;;;;;5092835;28;20058;-87
2023/06/11 13:59:31;;;;;;;4.13;2.95;;;;;;;;;;5092773;28;20454;-86
2023/06/11 14:02:01;;;;;;;3.17;2.92;;;;;;;;;;5092754;28;20052;-88
2023/06/11 14:04:28;;;;;;;3.47;3.08;;;;;;;;;;5092924;28;20048;-90
2023/06/11 14:06:56;;;;;;;4.05;3.33;;;;;;;;;;5092882;28;20098;-86
2023/06/11 14:09:23;;;;;;;3.28;3.10;;;;;;;;;;5092050;28;20078;-89
2023/06/11 14:11:50;;;;;;;4.47;3.50;;;;;;;;;;5095622;28;20072;-87
2023/06/11 14:14:18;;;;;;;3.25;2.97;;;;;;;;;;5096956;28;20621;-86
2023/06/11 14:16:48;;;;;;;3.53;3.33;;;;;;;;;;5096350;28;20089;-86
2023/06/11 14:19:16;;;;;;;3.72;3.38;;;;;;;;;;5095840;28;20123;-86
2023/06/11 14:21:43;;;;;;;4.72;3.40;;;;;;;;;;5095865;28;20048;-88
2023/06/11 14:24:10;;;;;;;4.60;3.47;;;;;;;;;;5096236;28;20411;-89
2023/06/11 14:26:38;;;;;;;4.78;3.10;;;;;;;;;;5096056;28;20470;-87
2023/06/11 14:29:05;;;;;;;4.10;3.10;;;;;;;;;;5096610;28;20109;-86
2023/06/11 14:31:34;;;;;;;4.90;3.20;;;;;;;;;;5095504;28;20408;-88
2023/06/11 14:34:02;;;;;;;3.40;2.65;;;;;;;;;;5096309;28;20082;-87
2023/06/11 14:36:30;;;;;;;5.15;3.22;;;;;;;;;;5095630;28;20450;-88
2023/06/11 14:38:58;;;;;;;4.15;3.58;;;;;;;;;;5095434;28;20079;-88